sensor_id;sensor_type;location;lat;lon;timestamp;P1;durP1;ratioP1;P2;durP2;ratioP2
67819;SDS011;54618;52.018;5.576;2023-07-08T00:00:21;6.30;;;2.20;;
67819;SDS011;54618;52.018;5.576;2023-07-08T00:02:48;4.43;;;2.30;;
67819;SDS011;54618;52.018;5.576;2023-07-08T00:05:15;5.45;;;2.30;;
67819;SDS011;54618;52.018;5.576;2023-07-08T00:07:42;5.40;;;2.28;;
67819;SDS011;54618;52.018;5.576;2023-07-08T00:10:10;6.13;;;2.30;;
67819;SDS011;54618;52.018;5.576;2023-07-08T00:12:38;4.97;;;2.28;;
67819;SDS011;54618;52.018;5.576;2023-07-08T00:15:04;6.28;;;2.30;;
67819;SDS011;54618;52.018;5.576;2023-07-08T00:17:30;3.50;;;2.20;;
67819;SDS011;54618;52.018;5.576;2023-07-08T00:19:56;3.08;;;2.13;;
67819;SDS011;54618;52.018;5.576;2023-07-08T00:22:21;7.85;;;2.10;;
67819;SDS011;54618;52.018;5.576;2023-07-08T00:24:49;6.22;;;2.22;;
67819;SDS011;54618;52.018;5.576;2023-07-08T00:27:16;3.88;;;2.10;;
67819;SDS011;54618;52.018;5.576;2023-07-08T00:29:41;3.55;;;1.92;;
67819;SDS011;54618;52.018;5.576;2023-07-08T00:32:12;3.78;;;2.17;;
67819;SDS011;54618;52.018;5.576;2023-07-08T00:37:05;4.35;;;2.00;;
67819;SDS011;54618;52.018;5.576;2023-07-08T00:39:33;3.83;;;2.03;;
67819;SDS011;54618;52.018;5.576;2023-07-08T00:42:04;6.38;;;2.05;;
67819;SDS011;54618;52.018;5.576;2023-07-08T00:44:41;4.07;;;2.03;;
67819;SDS011;54618;52.018;5.576;2023-07-08T00:47:09;6.75;;;2.30;;
67819;SDS011;54618;52.018;5.576;2023-07-08T00:49:47;6.22;;;2.10;;
67819;SDS011;54618;52.018;5.576;2023-07-08T00:52:25;4.53;;;2.22;;
67819;SDS011;54618;52.018;5.576;2023-07-08T00:54:56;4.15;;;2.35;;
67819;SDS011;54618;52.018;5.576;2023-07-08T00:57:31;6.97;;;2.30;;
67819;SDS011;54618;52.018;5.576;2023-07-08T01:02:53;8.65;;;2.25;;
67819;SDS011;54618;52.018;5.576;2023-07-08T01:05:22;3.97;;;1.90;;
67819;SDS011;54618;52.018;5.576;2023-07-08T01:07:51;4.85;;;2.28;;
67819;SDS011;54618;52.018;5.576;2023-07-08T01:12:59;6.95;;;2.22;;
67819;SDS011;54618;52.018;5.576;2023-07-08T01:15:30;5.68;;;2.28;;
67819;SDS011;54618;52.018;5.576;2023-07-08T01:18:00;4.45;;;2.33;;
67819;SDS011;54618;52.018;5.576;2023-07-08T01:20:26;3.78;;;2.10;;
67819;SDS011;54618;52.018;5.576;2023-07-08T01:22:52;4.40;;;2.40;;
67819;SDS011;54618;52.018;5.576;2023-07-08T01:25:17;5.13;;;2.70;;
67819;SDS011;54618;52.018;5.576;2023-07-08T01:27:45;4.03;;;2.28;;
67819;SDS011;54618;52.018;5.576;2023-07-08T01:30:12;4.85;;;2.28;;
67819;SDS011;54618;52.018;5.576;2023-07-08T01:32:43;3.72;;;2.10;;
67819;SDS011;54618;52.018;5.576;2023-07-08T01:35:13;4.13;;;2.10;;
67819;SDS011;54618;52.018;5.576;2023-07-08T01:37:40;5.07;;;2.17;;
67819;SDS011;54618;52.018;5.576;2023-07-08T01:42:52;3.40;;;2.03;;
67819;SDS011;54618;52.018;5.576;2023-07-08T01:45:19;4.68;;;2.45;;
67819;SDS011;54618;52.018;5.576;2023-07-08T01:47:47;6.55;;;2.70;;
67819;SDS011;54618;52.018;5.576;2023-07-08T01:50:16;6.43;;;2.30;;
67819;SDS011;54618;52.018;5.576;2023-07-08T01:52:43;5.30;;;2.63;;
67819;SDS011;54618;52.018;5.576;2023-07-08T01:55:08;6.45;;;2.47;;
67819;SDS011;54618;52.018;5.576;2023-07-08T01:57:34;5.40;;;2.35;;
67819;SDS011;54618;52.018;5.576;2023-07-08T01:59:59;5.90;;;2.40;;
67819;SDS011;54618;52.018;5.576;2023-07-08T02:02:25;5.28;;;2.30;;
67819;SDS011;54618;52.018;5.576;2023-07-08T02:04:51;6.82;;;2.38;;
67819;SDS011;54618;52.018;5.576;2023-07-08T02:07:16;4.10;;;2.28;;
67819;SDS011;54618;52.018;5.576;2023-07-08T02:09:42;5.22;;;2.40;;
67819;SDS011;54618;52.018;5.576;2023-07-08T02:12:07;4.35;;;2.28;;
67819;SDS011;54618;52.018;5.576;2023-07-08T02:14:33;4.70;;;2.20;;
67819;SDS011;54618;52.018;5.576;2023-07-08T02:16:59;7.53;;;2.30;;
67819;SDS011;54618;52.018;5.576;2023-07-08T02:19:30;4.63;;;2.33;;
67819;SDS011;54618;52.018;5.576;2023-07-08T02:21:56;5.20;;;2.33;;
67819;SDS011;54618;52.018;5.576;2023-07-08T02:24:22;4.28;;;2.42;;
67819;SDS011;54618;52.018;5.576;2023-07-08T02:26:48;7.72;;;2.40;;
67819;SDS011;54618;52.018;5.576;2023-07-08T02:29:13;7.05;;;2.50;;
67819;SDS011;54618;52.018;5.576;2023-07-08T02:31:39;4.63;;;2.30;;
67819;SDS011;54618;52.018;5.576;2023-07-08T02:34:05;3.47;;;2.25;;
67819;SDS011;54618;52.018;5.576;2023-07-08T02:36:30;4.68;;;2.20;;
67819;SDS011;54618;52.018;5.576;2023-07-08T02:38:59;4.90;;;2.60;;
67819;SDS011;54618;52.018;5.576;2023-07-08T02:41:25;5.38;;;2.38;;
67819;SDS011;54618;52.018;5.576;2023-07-08T02:43:50;4.70;;;2.58;;
67819;SDS011;54618;52.018;5.576;2023-07-08T02:46:16;4.45;;;2.30;;
67819;SDS011;54618;52.018;5.576;2023-07-08T02:48:41;6.07;;;2.50;;
67819;SDS011;54618;52.018;5.576;2023-07-08T02:51:07;5.85;;;2.70;;
67819;SDS011;54618;52.018;5.576;2023-07-08T02:53:34;7.90;;;2.63;;
67819;SDS011;54618;52.018;5.576;2023-07-08T02:56:00;4.45;;;2.47;;
67819;SDS011;54618;52.018;5.576;2023-07-08T02:58:25;6.65;;;2.40;;
67819;SDS011;54618;52.018;5.576;2023-07-08T03:00:53;6.95;;;2.50;;
67819;SDS011;54618;52.018;5.576;2023-07-08T03:03:20;4.10;;;2.53;;
67819;SDS011;54618;52.018;5.576;2023-07-08T03:05:59;4.18;;;2.45;;
67819;SDS011;54618;52.018;5.576;2023-07-08T03:08:27;4.15;;;2.40;;
67819;SDS011;54618;52.018;5.576;2023-07-08T03:10:55;3.70;;;2.40;;
67819;SDS011;54618;52.018;5.576;2023-07-08T03:13:27;3.92;;;2.30;;
67819;SDS011;54618;52.018;5.576;2023-07-08T03:15:54;4.82;;;2.70;;
67819;SDS011;54618;52.018;5.576;2023-07-08T03:18:20;4.70;;;2.50;;
67819;SDS011;54618;52.018;5.576;2023-07-08T03:20:48;7.85;;;2.50;;
67819;SDS011;54618;52.018;5.576;2023-07-08T03:23:14;6.68;;;2.67;;
67819;SDS011;54618;52.018;5.576;2023-07-08T03:25:40;6.50;;;2.50;;
67819;SDS011;54618;52.018;5.576;2023-07-08T03:28:07;5.53;;;2.63;;
67819;SDS011;54618;52.018;5.576;2023-07-08T03:30:39;6.72;;;2.10;;
67819;SDS011;54618;52.018;5.576;2023-07-08T03:33:04;6.00;;;2.60;;
67819;SDS011;54618;52.018;5.576;2023-07-08T03:35:30;5.55;;;2.50;;
67819;SDS011;54618;52.018;5.576;2023-07-08T03:37:56;4.88;;;2.40;;
67819;SDS011;54618;52.018;5.576;2023-07-08T03:40:21;6.05;;;2.38;;
67819;SDS011;54618;52.018;5.576;2023-07-08T03:42:47;4.55;;;2.25;;
67819;SDS011;54618;52.018;5.576;2023-07-08T03:45:12;4.80;;;2.40;;
67819;SDS011;54618;52.018;5.576;2023-07-08T03:47:38;4.53;;;2.45;;
67819;SDS011;54618;52.018;5.576;2023-07-08T03:50:03;4.32;;;2.40;;
67819;SDS011;54618;52.018;5.576;2023-07-08T03:52:30;5.10;;;2.45;;
67819;SDS011;54618;52.018;5.576;2023-07-08T03:54:56;6.10;;;2.40;;
67819;SDS011;54618;52.018;5.576;2023-07-08T03:57:21;6.75;;;2.40;;
67819;SDS011;54618;52.018;5.576;2023-07-08T03:59:47;5.45;;;2.60;;
67819;SDS011;54618;52.018;5.576;2023-07-08T04:02:12;5.97;;;2.75;;
67819;SDS011;54618;52.018;5.576;2023-07-08T04:04:38;5.88;;;2.50;;
67819;SDS011;54618;52.018;5.576;2023-07-08T04:07:04;6.50;;;2.88;;
67819;SDS011;54618;52.018;5.576;2023-07-08T04:09:30;3.63;;;2.38;;
67819;SDS011;54618;52.018;5.576;2023-07-08T04:11:56;4.45;;;2.55;;
67819;SDS011;54618;52.018;5.576;2023-07-08T04:14:22;4.75;;;2.78;;
67819;SDS011;54618;52.018;5.576;2023-07-08T04:16:52;4.93;;;2.53;;
67819;SDS011;54618;52.018;5.576;2023-07-08T04:19:23;5.57;;;2.67;;
67819;SDS011;54618;52.018;5.576;2023-07-08T04:21:49;5.97;;;2.50;;
67819;SDS011;54618;52.018;5.576;2023-07-08T04:24:16;4.65;;;2.50;;
67819;SDS011;54618;52.018;5.576;2023-07-08T04:26:43;4.43;;;2.40;;
67819;SDS011;54618;52.018;5.576;2023-07-08T04:29:20;4.60;;;2.30;;
67819;SDS011;54618;52.018;5.576;2023-07-08T04:31:47;6.07;;;2.42;;
67819;SDS011;54618;52.018;5.576;2023-07-08T04:34:13;4.55;;;2.30;;
67819;SDS011;54618;52.018;5.576;2023-07-08T04:36:39;4.63;;;2.55;;
67819;SDS011;54618;52.018;5.576;2023-07-08T04:39:06;6.45;;;2.53;;
67819;SDS011;54618;52.018;5.576;2023-07-08T04:41:32;4.68;;;2.40;;
67819;SDS011;54618;52.018;5.576;2023-07-08T04:43:58;5.88;;;2.60;;
67819;SDS011;54618;52.018;5.576;2023-07-08T04:46:37;6.97;;;2.78;;
67819;SDS011;54618;52.018;5.576;2023-07-08T04:49:06;5.05;;;2.47;;
67819;SDS011;54618;52.018;5.576;2023-07-08T04:51:34;4.38;;;2.60;;
67819;SDS011;54618;52.018;5.576;2023-07-08T04:54:01;5.53;;;2.40;;
67819;SDS011;54618;52.018;5.576;2023-07-08T04:56:48;7.32;;;2.42;;
67819;SDS011;54618;52.018;5.576;2023-07-08T04:59:14;3.20;;;2.20;;
67819;SDS011;54618;52.018;5.576;2023-07-08T05:01:44;4.32;;;2.22;;
67819;SDS011;54618;52.018;5.576;2023-07-08T05:04:14;4.18;;;2.30;;
67819;SDS011;54618;52.018;5.576;2023-07-08T05:09:06;9.55;;;2.28;;
67819;SDS011;54618;52.018;5.576;2023-07-08T05:11:33;5.50;;;2.55;;
67819;SDS011;54618;52.018;5.576;2023-07-08T05:14:02;5.68;;;2.47;;
67819;SDS011;54618;52.018;5.576;2023-07-08T05:16:28;4.30;;;2.40;;
67819;SDS011;54618;52.018;5.576;2023-07-08T05:18:58;3.03;;;2.10;;
67819;SDS011;54618;52.018;5.576;2023-07-08T05:21:28;6.07;;;2.15;;
67819;SDS011;54618;52.018;5.576;2023-07-08T05:24:01;5.90;;;2.20;;
67819;SDS011;54618;52.018;5.576;2023-07-08T05:26:28;3.80;;;2.10;;
67819;SDS011;54618;52.018;5.576;2023-07-08T05:28:53;6.93;;;2.47;;
67819;SDS011;54618;52.018;5.576;2023-07-08T05:31:19;7.05;;;2.53;;
67819;SDS011;54618;52.018;5.576;2023-07-08T05:33:44;5.72;;;2.40;;
67819;SDS011;54618;52.018;5.576;2023-07-08T05:36:10;6.43;;;2.38;;
67819;SDS011;54618;52.018;5.576;2023-07-08T05:38:35;3.40;;;2.15;;
67819;SDS011;54618;52.018;5.576;2023-07-08T05:41:01;8.40;;;2.38;;
67819;SDS011;54618;52.018;5.576;2023-07-08T05:43:26;3.90;;;2.33;;
67819;SDS011;54618;52.018;5.576;2023-07-08T05:45:56;3.85;;;2.20;;
67819;SDS011;54618;52.018;5.576;2023-07-08T05:48:22;3.47;;;2.35;;
67819;SDS011;54618;52.018;5.576;2023-07-08T05:50:48;4.00;;;2.45;;
67819;SDS011;54618;52.018;5.576;2023-07-08T05:53:13;3.45;;;2.20;;
67819;SDS011;54618;52.018;5.576;2023-07-08T05:55:39;5.40;;;2.30;;
67819;SDS011;54618;52.018;5.576;2023-07-08T05:58:07;7.97;;;2.53;;
67819;SDS011;54618;52.018;5.576;2023-07-08T06:00:33;4.93;;;2.50;;
67819;SDS011;54618;52.018;5.576;2023-07-08T06:03:02;8.07;;;2.30;;
67819;SDS011;54618;52.018;5.576;2023-07-08T06:05:28;6.82;;;2.38;;
67819;SDS011;54618;52.018;5.576;2023-07-08T06:07:53;7.03;;;2.30;;
67819;SDS011;54618;52.018;5.576;2023-07-08T06:10:19;5.40;;;2.38;;
67819;SDS011;54618;52.018;5.576;2023-07-08T06:12:45;5.22;;;2.33;;
67819;SDS011;54618;52.018;5.576;2023-07-08T06:15:10;5.10;;;2.10;;
67819;SDS011;54618;52.018;5.576;2023-07-08T06:17:37;5.22;;;2.40;;
67819;SDS011;54618;52.018;5.576;2023-07-08T06:20:03;3.65;;;2.10;;
67819;SDS011;54618;52.018;5.576;2023-07-08T06:22:32;3.53;;;2.10;;
67819;SDS011;54618;52.018;5.576;2023-07-08T06:24:57;5.13;;;2.35;;
67819;SDS011;54618;52.018;5.576;2023-07-08T06:27:23;4.95;;;2.20;;
67819;SDS011;54618;52.018;5.576;2023-07-08T06:29:49;6.70;;;2.17;;
67819;SDS011;54618;52.018;5.576;2023-07-08T06:32:15;7.78;;;2.38;;
67819;SDS011;54618;52.018;5.576;2023-07-08T06:34:41;3.10;;;2.17;;
67819;SDS011;54618;52.018;5.576;2023-07-08T06:37:06;6.20;;;2.17;;
67819;SDS011;54618;52.018;5.576;2023-07-08T06:39:32;3.60;;;2.13;;
67819;SDS011;54618;52.018;5.576;2023-07-08T06:42:03;4.25;;;2.17;;
67819;SDS011;54618;52.018;5.576;2023-07-08T06:44:28;3.55;;;2.15;;
67819;SDS011;54618;52.018;5.576;2023-07-08T06:46:57;3.38;;;2.10;;
67819;SDS011;54618;52.018;5.576;2023-07-08T06:49:23;4.32;;;2.00;;
67819;SDS011;54618;52.018;5.576;2023-07-08T06:51:48;4.63;;;2.20;;
67819;SDS011;54618;52.018;5.576;2023-07-08T06:54:14;4.53;;;1.83;;
67819;SDS011;54618;52.018;5.576;2023-07-08T06:56:40;5.05;;;2.17;;
67819;SDS011;54618;52.018;5.576;2023-07-08T06:59:06;5.18;;;2.50;;
67819;SDS011;54618;52.018;5.576;2023-07-08T07:01:33;4.90;;;2.38;;
67819;SDS011;54618;52.018;5.576;2023-07-08T07:03:59;4.28;;;2.28;;
67819;SDS011;54618;52.018;5.576;2023-07-08T07:06:28;5.18;;;2.40;;
67819;SDS011;54618;52.018;5.576;2023-07-08T07:08:54;4.82;;;2.10;;
67819;SDS011;54618;52.018;5.576;2023-07-08T07:11:19;3.58;;;2.33;;
67819;SDS011;54618;52.018;5.576;2023-07-08T07:13:45;6.38;;;2.38;;
67819;SDS011;54618;52.018;5.576;2023-07-08T07:16:11;6.85;;;2.08;;
67819;SDS011;54618;52.018;5.576;2023-07-08T07:18:37;5.22;;;2.13;;
67819;SDS011;54618;52.018;5.576;2023-07-08T07:21:02;4.60;;;2.30;;
67819;SDS011;54618;52.018;5.576;2023-07-08T07:23:28;5.55;;;2.50;;
67819;SDS011;54618;52.018;5.576;2023-07-08T07:25:53;6.18;;;1.98;;
67819;SDS011;54618;52.018;5.576;2023-07-08T07:28:19;4.93;;;2.28;;
67819;SDS011;54618;52.018;5.576;2023-07-08T07:30:45;5.20;;;2.15;;
67819;SDS011;54618;52.018;5.576;2023-07-08T07:33:11;5.63;;;2.42;;
67819;SDS011;54618;52.018;5.576;2023-07-08T07:35:44;3.35;;;2.25;;
67819;SDS011;54618;52.018;5.576;2023-07-08T07:38:10;6.50;;;2.40;;
67819;SDS011;54618;52.018;5.576;2023-07-08T07:40:35;6.18;;;2.55;;
67819;SDS011;54618;52.018;5.576;2023-07-08T07:43:01;8.07;;;2.70;;
67819;SDS011;54618;52.018;5.576;2023-07-08T07:45:27;4.57;;;2.60;;
67819;SDS011;54618;52.018;5.576;2023-07-08T07:47:52;4.43;;;2.50;;
67819;SDS011;54618;52.018;5.576;2023-07-08T07:50:18;9.43;;;2.90;;
67819;SDS011;54618;52.018;5.576;2023-07-08T07:52:43;10.38;;;2.70;;
67819;SDS011;54618;52.018;5.576;2023-07-08T07:55:09;6.15;;;2.67;;
67819;SDS011;54618;52.018;5.576;2023-07-08T07:57:35;6.40;;;2.40;;
67819;SDS011;54618;52.018;5.576;2023-07-08T08:00:03;6.65;;;3.00;;
67819;SDS011;54618;52.018;5.576;2023-07-08T08:02:33;6.80;;;3.10;;
67819;SDS011;54618;52.018;5.576;2023-07-08T08:04:59;7.97;;;3.05;;
67819;SDS011;54618;52.018;5.576;2023-07-08T08:07:25;5.30;;;2.65;;
67819;SDS011;54618;52.018;5.576;2023-07-08T08:09:51;7.80;;;3.00;;
67819;SDS011;54618;52.018;5.576;2023-07-08T08:12:18;3.92;;;2.70;;
67819;SDS011;54618;52.018;5.576;2023-07-08T08:14:43;7.00;;;3.10;;
67819;SDS011;54618;52.018;5.576;2023-07-08T08:17:09;8.50;;;2.97;;
67819;SDS011;54618;52.018;5.576;2023-07-08T08:19:35;12.55;;;3.22;;
67819;SDS011;54618;52.018;5.576;2023-07-08T08:22:00;5.28;;;2.65;;
67819;SDS011;54618;52.018;5.576;2023-07-08T08:24:26;5.63;;;2.80;;
67819;SDS011;54618;52.018;5.576;2023-07-08T08:26:52;8.40;;;3.42;;
67819;SDS011;54618;52.018;5.576;2023-07-08T08:29:17;8.48;;;3.10;;
67819;SDS011;54618;52.018;5.576;2023-07-08T08:31:43;9.18;;;3.25;;
67819;SDS011;54618;52.018;5.576;2023-07-08T08:34:08;6.90;;;3.08;;
67819;SDS011;54618;52.018;5.576;2023-07-08T08:36:34;5.55;;;2.70;;
67819;SDS011;54618;52.018;5.576;2023-07-08T08:39:03;5.25;;;2.80;;
67819;SDS011;54618;52.018;5.576;2023-07-08T08:41:33;11.73;;;3.65;;
67819;SDS011;54618;52.018;5.576;2023-07-08T08:44:03;8.48;;;3.17;;
67819;SDS011;54618;52.018;5.576;2023-07-08T08:49:37;8.57;;;3.10;;
67819;SDS011;54618;52.018;5.576;2023-07-08T08:52:08;8.52;;;3.33;;
67819;SDS011;54618;52.018;5.576;2023-07-08T08:54:40;5.75;;;3.30;;
67819;SDS011;54618;52.018;5.576;2023-07-08T08:57:12;7.55;;;3.47;;
67819;SDS011;54618;52.018;5.576;2023-07-08T09:02:23;6.65;;;3.20;;
67819;SDS011;54618;52.018;5.576;2023-07-08T09:05:06;6.32;;;2.95;;
67819;SDS011;54618;52.018;5.576;2023-07-08T09:07:36;8.88;;;3.38;;
67819;SDS011;54618;52.018;5.576;2023-07-08T09:13:47;7.05;;;3.75;;
67819;SDS011;54618;52.018;5.576;2023-07-08T09:16:07;6.93;;;3.90;;
67819;SDS011;54618;52.018;5.576;2023-07-08T09:19:09;7.35;;;3.53;;
67819;SDS011;54618;52.018;5.576;2023-07-08T09:22:11;6.60;;;3.53;;
67819;SDS011;54618;52.018;5.576;2023-07-08T09:24:51;5.93;;;3.40;;
67819;SDS011;54618;52.018;5.576;2023-07-08T09:27:21;6.00;;;3.15;;
67819;SDS011;54618;52.018;5.576;2023-07-08T09:29:47;8.73;;;3.20;;
67819;SDS011;54618;52.018;5.576;2023-07-08T09:32:14;6.22;;;3.45;;
67819;SDS011;54618;52.018;5.576;2023-07-08T09:34:44;6.93;;;3.70;;
67819;SDS011;54618;52.018;5.576;2023-07-08T09:37:27;7.10;;;3.30;;
67819;SDS011;54618;52.018;5.576;2023-07-08T09:39:55;10.93;;;4.07;;
67819;SDS011;54618;52.018;5.576;2023-07-08T09:42:25;8.23;;;3.28;;
67819;SDS011;54618;52.018;5.576;2023-07-08T09:44:59;8.43;;;3.38;;
67819;SDS011;54618;52.018;5.576;2023-07-08T09:47:36;5.70;;;3.10;;
67819;SDS011;54618;52.018;5.576;2023-07-08T09:52:57;6.00;;;3.38;;
67819;SDS011;54618;52.018;5.576;2023-07-08T09:55:26;6.63;;;3.47;;
67819;SDS011;54618;52.018;5.576;2023-07-08T09:57:53;8.05;;;3.60;;
67819;SDS011;54618;52.018;5.576;2023-07-08T10:00:30;6.63;;;3.47;;
67819;SDS011;54618;52.018;5.576;2023-07-08T10:03:05;7.35;;;3.60;;
67819;SDS011;54618;52.018;5.576;2023-07-08T10:05:42;6.65;;;3.55;;
67819;SDS011;54618;52.018;5.576;2023-07-08T10:08:13;6.55;;;3.90;;
67819;SDS011;54618;52.018;5.576;2023-07-08T10:10:41;8.48;;;3.60;;
67819;SDS011;54618;52.018;5.576;2023-07-08T10:13:22;8.27;;;3.60;;
67819;SDS011;54618;52.018;5.576;2023-07-08T10:15:55;6.90;;;4.20;;
67819;SDS011;54618;52.018;5.576;2023-07-08T10:18:42;7.78;;;3.50;;
67819;SDS011;54618;52.018;5.576;2023-07-08T10:21:08;7.00;;;3.50;;
67819;SDS011;54618;52.018;5.576;2023-07-08T10:35:18;7.32;;;4.13;;
67819;SDS011;54618;52.018;5.576;2023-07-08T10:40:58;5.68;;;4.22;;
67819;SDS011;54618;52.018;5.576;2023-07-08T10:46:37;6.00;;;3.92;;
67819;SDS011;54618;52.018;5.576;2023-07-08T10:57:13;6.95;;;4.30;;
67819;SDS011;54618;52.018;5.576;2023-07-08T11:00:35;10.05;;;4.32;;
67819;SDS011;54618;52.018;5.576;2023-07-08T11:05:28;10.55;;;4.30;;
67819;SDS011;54618;52.018;5.576;2023-07-08T11:10:55;7.72;;;4.47;;
67819;SDS011;54618;52.018;5.576;2023-07-08T11:13:26;6.07;;;3.90;;
67819;SDS011;54618;52.018;5.576;2023-07-08T11:16:01;10.88;;;4.68;;
67819;SDS011;54618;52.018;5.576;2023-07-08T11:18:30;6.25;;;4.32;;
67819;SDS011;54618;52.018;5.576;2023-07-08T11:21:14;6.88;;;4.57;;
67819;SDS011;54618;52.018;5.576;2023-07-08T11:23:46;7.45;;;4.50;;
67819;SDS011;54618;52.018;5.576;2023-07-08T11:26:18;8.35;;;4.78;;
67819;SDS011;54618;52.018;5.576;2023-07-08T11:28:49;10.48;;;4.60;;
67819;SDS011;54618;52.018;5.576;2023-07-08T11:33:44;6.93;;;4.55;;
67819;SDS011;54618;52.018;5.576;2023-07-08T11:36:11;8.40;;;4.35;;
67819;SDS011;54618;52.018;5.576;2023-07-08T11:38:47;8.85;;;4.68;;
67819;SDS011;54618;52.018;5.576;2023-07-08T11:41:15;6.95;;;4.53;;
67819;SDS011;54618;52.018;5.576;2023-07-08T11:46:14;7.40;;;4.57;;
67819;SDS011;54618;52.018;5.576;2023-07-08T11:48:46;8.73;;;4.93;;
67819;SDS011;54618;52.018;5.576;2023-07-08T11:51:16;7.85;;;4.60;;
67819;SDS011;54618;52.018;5.576;2023-07-08T11:56:29;7.78;;;4.40;;
67819;SDS011;54618;52.018;5.576;2023-07-08T11:59:22;9.25;;;4.60;;
67819;SDS011;54618;52.018;5.576;2023-07-08T12:02:01;6.60;;;4.53;;
67819;SDS011;54618;52.018;5.576;2023-07-08T12:04:36;8.60;;;4.55;;
67819;SDS011;54618;52.018;5.576;2023-07-08T12:07:20;8.85;;;4.70;;
67819;SDS011;54618;52.018;5.576;2023-07-08T12:12:43;7.53;;;4.40;;
67819;SDS011;54618;52.018;5.576;2023-07-08T12:17:45;6.75;;;4.45;;
67819;SDS011;54618;52.018;5.576;2023-07-08T12:20:19;6.53;;;4.32;;
67819;SDS011;54618;52.018;5.576;2023-07-08T12:22:48;8.25;;;4.68;;
67819;SDS011;54618;52.018;5.576;2023-07-08T12:25:15;7.53;;;4.82;;
67819;SDS011;54618;52.018;5.576;2023-07-08T12:27:43;9.07;;;4.80;;
67819;SDS011;54618;52.018;5.576;2023-07-08T12:30:10;10.05;;;4.78;;
67819;SDS011;54618;52.018;5.576;2023-07-08T12:32:36;8.30;;;4.80;;
67819;SDS011;54618;52.018;5.576;2023-07-08T12:35:02;9.82;;;4.68;;
67819;SDS011;54618;52.018;5.576;2023-07-08T12:37:33;9.18;;;4.85;;
67819;SDS011;54618;52.018;5.576;2023-07-08T12:40:06;6.47;;;4.40;;
67819;SDS011;54618;52.018;5.576;2023-07-08T12:42:35;6.07;;;4.45;;
67819;SDS011;54618;52.018;5.576;2023-07-08T12:45:08;6.70;;;4.30;;
67819;SDS011;54618;52.018;5.576;2023-07-08T12:47:42;7.57;;;4.75;;
67819;SDS011;54618;52.018;5.576;2023-07-08T12:50:09;9.00;;;4.43;;
67819;SDS011;54618;52.018;5.576;2023-07-08T12:52:35;11.10;;;4.28;;
67819;SDS011;54618;52.018;5.576;2023-07-08T12:55:05;8.73;;;4.20;;
67819;SDS011;54618;52.018;5.576;2023-07-08T12:57:33;11.20;;;4.60;;
67819;SDS011;54618;52.018;5.576;2023-07-08T12:59:59;7.50;;;4.10;;
67819;SDS011;54618;52.018;5.576;2023-07-08T13:02:27;7.47;;;4.47;;
67819;SDS011;54618;52.018;5.576;2023-07-08T13:04:58;8.10;;;4.57;;
67819;SDS011;54618;52.018;5.576;2023-07-08T13:10:03;9.40;;;5.10;;
67819;SDS011;54618;52.018;5.576;2023-07-08T13:12:33;6.80;;;4.53;;
67819;SDS011;54618;52.018;5.576;2023-07-08T13:15:02;7.63;;;4.60;;
67819;SDS011;54618;52.018;5.576;2023-07-08T13:17:32;7.30;;;4.30;;
67819;SDS011;54618;52.018;5.576;2023-07-08T13:19:59;14.40;;;4.28;;
67819;SDS011;54618;52.018;5.576;2023-07-08T13:22:25;8.32;;;4.10;;
67819;SDS011;54618;52.018;5.576;2023-07-08T13:24:58;11.27;;;4.35;;
67819;SDS011;54618;52.018;5.576;2023-07-08T13:27:25;8.25;;;4.07;;
67819;SDS011;54618;52.018;5.576;2023-07-08T13:29:51;7.28;;;4.05;;
67819;SDS011;54618;52.018;5.576;2023-07-08T13:32:18;10.45;;;4.72;;
67819;SDS011;54618;52.018;5.576;2023-07-08T13:34:43;8.27;;;4.45;;
67819;SDS011;54618;52.018;5.576;2023-07-08T13:37:10;9.45;;;4.63;;
67819;SDS011;54618;52.018;5.576;2023-07-08T13:39:38;8.67;;;4.53;;
67819;SDS011;54618;52.018;5.576;2023-07-08T13:42:03;6.82;;;4.05;;
67819;SDS011;54618;52.018;5.576;2023-07-08T13:44:32;7.77;;;4.90;;
67819;SDS011;54618;52.018;5.576;2023-07-08T13:46:59;5.75;;;4.15;;
67819;SDS011;54618;52.018;5.576;2023-07-08T13:49:43;7.07;;;4.10;;
67819;SDS011;54618;52.018;5.576;2023-07-08T13:54:41;8.18;;;4.38;;
67819;SDS011;54618;52.018;5.576;2023-07-08T13:57:15;6.90;;;4.35;;
67819;SDS011;54618;52.018;5.576;2023-07-08T14:02:18;11.10;;;4.28;;
67819;SDS011;54618;52.018;5.576;2023-07-08T14:04:49;8.15;;;4.57;;
67819;SDS011;54618;52.018;5.576;2023-07-08T14:07:21;7.30;;;4.45;;
67819;SDS011;54618;52.018;5.576;2023-07-08T14:09:48;8.70;;;4.90;;
67819;SDS011;54618;52.018;5.576;2023-07-08T14:12:14;8.77;;;4.88;;
67819;SDS011;54618;52.018;5.576;2023-07-08T14:14:40;8.77;;;5.25;;
67819;SDS011;54618;52.018;5.576;2023-07-08T14:17:08;6.15;;;4.28;;
67819;SDS011;54618;52.018;5.576;2023-07-08T14:19:36;22.17;;;5.15;;
67819;SDS011;54618;52.018;5.576;2023-07-08T14:22:24;7.75;;;4.47;;
67819;SDS011;54618;52.018;5.576;2023-07-08T14:24:51;12.75;;;4.72;;
67819;SDS011;54618;52.018;5.576;2023-07-08T14:27:17;9.00;;;4.43;;
67819;SDS011;54618;52.018;5.576;2023-07-08T14:29:46;12.05;;;4.70;;
67819;SDS011;54618;52.018;5.576;2023-07-08T14:32:15;11.82;;;4.68;;
67819;SDS011;54618;52.018;5.576;2023-07-08T14:34:57;7.93;;;5.00;;
67819;SDS011;54618;52.018;5.576;2023-07-08T14:37:39;10.73;;;4.50;;
67819;SDS011;54618;52.018;5.576;2023-07-08T14:40:24;9.25;;;4.60;;
67819;SDS011;54618;52.018;5.576;2023-07-08T14:42:59;9.55;;;4.20;;
67819;SDS011;54618;52.018;5.576;2023-07-08T14:45:29;9.52;;;4.65;;
67819;SDS011;54618;52.018;5.576;2023-07-08T14:47:56;9.35;;;4.57;;
67819;SDS011;54618;52.018;5.576;2023-07-08T14:50:22;11.77;;;4.90;;
67819;SDS011;54618;52.018;5.576;2023-07-08T14:52:50;8.32;;;4.20;;
67819;SDS011;54618;52.018;5.576;2023-07-08T14:55:15;7.90;;;4.15;;
67819;SDS011;54618;52.018;5.576;2023-07-08T14:57:45;7.32;;;4.65;;
67819;SDS011;54618;52.018;5.576;2023-07-08T15:00:13;13.73;;;4.57;;
67819;SDS011;54618;52.018;5.576;2023-07-08T15:02:41;8.52;;;4.30;;
67819;SDS011;54618;52.018;5.576;2023-07-08T15:05:13;7.45;;;4.82;;
67819;SDS011;54618;52.018;5.576;2023-07-08T15:07:43;9.57;;;4.53;;
67819;SDS011;54618;52.018;5.576;2023-07-08T15:10:09;9.18;;;4.40;;
67819;SDS011;54618;52.018;5.576;2023-07-08T15:12:35;8.80;;;4.78;;
67819;SDS011;54618;52.018;5.576;2023-07-08T15:15:01;9.80;;;4.57;;
67819;SDS011;54618;52.018;5.576;2023-07-08T15:17:27;10.00;;;4.63;;
67819;SDS011;54618;52.018;5.576;2023-07-08T15:19:53;8.15;;;4.90;;
67819;SDS011;54618;52.018;5.576;2023-07-08T15:22:18;12.73;;;4.90;;
67819;SDS011;54618;52.018;5.576;2023-07-08T15:24:43;8.80;;;4.82;;
67819;SDS011;54618;52.018;5.576;2023-07-08T15:27:10;7.28;;;4.47;;
67819;SDS011;54618;52.018;5.576;2023-07-08T15:29:37;9.40;;;4.80;;
67819;SDS011;54618;52.018;5.576;2023-07-08T15:32:03;12.07;;;4.72;;
67819;SDS011;54618;52.018;5.576;2023-07-08T15:34:28;8.20;;;4.57;;
67819;SDS011;54618;52.018;5.576;2023-07-08T15:36:54;11.40;;;4.63;;
67819;SDS011;54618;52.018;5.576;2023-07-08T15:39:20;9.48;;;4.78;;
67819;SDS011;54618;52.018;5.576;2023-07-08T15:41:47;10.80;;;4.50;;
67819;SDS011;54618;52.018;5.576;2023-07-08T15:44:13;7.68;;;4.43;;
67819;SDS011;54618;52.018;5.576;2023-07-08T15:46:40;8.82;;;4.50;;
67819;SDS011;54618;52.018;5.576;2023-07-08T15:49:25;10.40;;;5.15;;
67819;SDS011;54618;52.018;5.576;2023-07-08T15:51:53;8.27;;;4.00;;
67819;SDS011;54618;52.018;5.576;2023-07-08T15:54:18;10.77;;;4.50;;
67819;SDS011;54618;52.018;5.576;2023-07-08T15:56:44;5.88;;;4.22;;
67819;SDS011;54618;52.018;5.576;2023-07-08T15:59:12;9.70;;;4.68;;
67819;SDS011;54618;52.018;5.576;2023-07-08T16:01:41;6.55;;;4.47;;
67819;SDS011;54618;52.018;5.576;2023-07-08T16:04:12;9.32;;;4.40;;
67819;SDS011;54618;52.018;5.576;2023-07-08T16:06:47;10.50;;;4.53;;
67819;SDS011;54618;52.018;5.576;2023-07-08T16:09:12;8.50;;;4.30;;
67819;SDS011;54618;52.018;5.576;2023-07-08T16:11:38;8.82;;;4.85;;